Terminal Aerodrome Forecast
Issued by NWS Sterling, VA

Current Version | Previous Version | Graphics & Text | Print | Product List | Glossary On
Versions: 1 2 3 4 5 6 7 8 9 10 11 12 13 14 15 16 17 18 19 20 21 22 23 24 25
000
FTUS41 KLWX 270200 AAA
TAFIAD
TAF AMD
KIAD 270239Z 2703/2806 16005KT P6SM BKN090
      TEMPO 2703/2704 5SM -SHRA BKN050
     FM271200 23004KT P6SM BKN090
     FM271800 23008KT 5SM SHRA VCTS SCT050CB BKN090
     FM280200 20005KT 5SM -SHRA VCTS BKN050CB=

USA.gov is the U.S. government's official web portal to all federal, state and local government web resources and services.